Nagoya - Chubu, Japan

12:37 AM JST on July 25, 2014 (GMT +0900)
Nagoya / Chubu (RJGG) Elev 16 ft | 34.86 °N, 136.81 °E | Change Station

Current weather conditions updated 37 minutes ago

Partly Cloudy
Partly Cloudy
81 °F
Feels Like 87 °F
N
6
Wind Variable Wind from NNW

Today is forecast to be nearly the same temperature as yesterday.

Today
High -- | Low -- °F
--% Chance of Precip.
Yesterday
High -- | Low -- °F
Precip. -- in
4:56 AM 7:01 PM
Waning Crescent, 5% visible
Pressure 29.77 in
Visibility 6.2 miles
Clouds Few 2500 ft
Heat Index 87 °F
Dew Point 77 °F
Humidity 89%
Rainfall 0.00 in
Snow Depth Not available.
UV 0 out of 12
Pollen Not available.
Air Quality Not available.
Flu Activity Not available.
METAR RJGG 241500Z 33005KT 9999 FEW025 SCT/// 27/25 Q1008 NOSIG

More Conditions Fewer Conditions

Pressure 29.77 in
Visibility 6.2 miles
Clouds Few 2500 ft
Heat Index 87 °F
Dew Point 77 °F
Humidity 89%
Rainfall 0.00 in
Snow Depth Not available.
UV 0 out of 12
Pollen Not available.
Air Quality Not available.
Flu Activity Not available.
METAR RJGG 241500Z 33005KT 9999 FEW025 SCT/// 27/25 Q1008 NOSIG

More Conditions Fewer Conditions

10-Day Weather Forecast

Almanac

Astronomy

Jul. 25, 2014 Rise Set
Actual Time 4:56 AM JST 7:01 PM JST
Civil Twilight 4:28 AM JST 7:29 PM JST
Nautical Twilight 3:54 AM JST 8:03 PM JST
Astronomical Twilight 3:17 AM JST 8:40 PM JST
Moon 3:22 AM JST (7/25) 5:33 PM JST (7/25)
Length of Visible Light 15h 00m
Length of Day
14h 04m
Tomorrow will be 1m 27s shorter.
Waning Crescent, 5% of the Moon is Illuminated
Jul 24
Waning Crescent
Jul 26
New
Aug 3
First Quarter
Aug 10
Full
Aug 17
Last Quarter

Yesterday's Extremes

Country Highs Country Lows

Community

WunderPhotos

Upload Photos

1,737,042 photos uploaded!

Nearby

Snow Depth

Not available.

Earthquake Activity

City Distance Mag. Time & Date
No recent earthquake activity has been reported nearby.
Minimum magnitude displayed is 2.5.

Coastal Water Temperatures

Place Temperature
No Stations Reporting

Nearby Weather Stations

Station Location Temp. Heat Index Dew Point Humidity Wind Precip. Elev Updated Type
SUZUKA, %u9234%u9E7F%u5E02 83.1 °F 89 °F 74 °F 73% North  at  0.0 mph 0.00 in / hr 33 ft 12:37 AM JST Rapid Fire
Nagoya 86.5 °F 87 °F 62 °F 44% East  at  0.0 mph 0.00 in / hr 52 ft 12:37 AM JST Rapid Fire
Tenpaku Ward,nagoya City, %u540D%u53E4%u5C4B%u5E02 84.5 °F 91 °F 72 °F 68% West  at  0.0 mph 0.00 in / hr 62 ft 12:37 AM JST Normal

Show More Stations Show Fewer Stations